sensor_id;sensor_type;location;lat;lon;timestamp;pressure;altitude;pressure_sealevel;temperature;humidity
33286;BME280;19656;50.096;20.014;2023-03-01T00:04:34;100302.15;;;1.18;60.49
33286;BME280;19656;50.096;20.014;2023-03-01T00:09:39;100300.06;;;1.15;60.55
33286;BME280;19656;50.096;20.014;2023-03-01T00:14:43;100292.73;;;1.10;60.76
33286;BME280;19656;50.096;20.014;2023-03-01T00:19:46;100293.80;;;1.07;60.87
33286;BME280;19656;50.096;20.014;2023-03-01T00:31:55;100288.40;;;1.03;60.72
33286;BME280;19656;50.096;20.014;2023-03-01T00:36:59;100286.30;;;1.02;60.86
33286;BME280;19656;50.096;20.014;2023-03-01T00:42:08;100284.04;;;0.95;60.75
33286;BME280;19656;50.096;20.014;2023-03-01T00:47:11;100276.19;;;0.96;60.90
33286;BME280;19656;50.096;20.014;2023-03-01T00:52:14;100272.51;;;1.00;60.89
33286;BME280;19656;50.096;20.014;2023-03-01T00:57:18;100261.14;;;1.02;60.74
33286;BME280;19656;50.096;20.014;2023-03-01T01:02:22;100257.82;;;1.01;60.49
33286;BME280;19656;50.096;20.014;2023-03-01T01:07:26;100260.63;;;0.99;60.67
33286;BME280;19656;50.096;20.014;2023-03-01T01:12:30;100266.77;;;0.94;60.82
33286;BME280;19656;50.096;20.014;2023-03-01T01:17:33;100262.75;;;0.92;60.79
33286;BME280;19656;50.096;20.014;2023-03-01T01:22:37;100255.75;;;0.90;60.91
33286;BME280;19656;50.096;20.014;2023-03-01T01:27:40;100255.95;;;0.84;60.82
33286;BME280;19656;50.096;20.014;2023-03-01T01:32:44;100247.23;;;0.83;61.04
33286;BME280;19656;50.096;20.014;2023-03-01T01:37:47;100241.82;;;0.78;61.06
33286;BME280;19656;50.096;20.014;2023-03-01T01:42:51;100238.19;;;0.74;61.19
33286;BME280;19656;50.096;20.014;2023-03-01T01:47:58;100237.99;;;0.71;60.94
33286;BME280;19656;50.096;20.014;2023-03-01T01:53:09;100235.56;;;0.69;61.25
33286;BME280;19656;50.096;20.014;2023-03-01T01:58:18;100231.90;;;0.68;61.30
33286;BME280;19656;50.096;20.014;2023-03-01T02:03:29;100228.95;;;0.65;61.29
33286;BME280;19656;50.096;20.014;2023-03-01T02:08:38;100220.75;;;0.60;61.41
33286;BME280;19656;50.096;20.014;2023-03-01T02:13:44;100228.09;;;0.56;61.65
33286;BME280;19656;50.096;20.014;2023-03-01T02:18:49;100233.86;;;0.56;61.68
33286;BME280;19656;50.096;20.014;2023-03-01T02:23:54;100227.92;;;0.50;61.60
33286;BME280;19656;50.096;20.014;2023-03-01T02:28:58;100236.66;;;0.44;61.61
33286;BME280;19656;50.096;20.014;2023-03-01T02:34:03;100240.69;;;0.42;61.84
33286;BME280;19656;50.096;20.014;2023-03-01T02:39:10;100240.17;;;0.41;61.89
33286;BME280;19656;50.096;20.014;2023-03-01T02:44:17;100238.77;;;0.36;61.86
33286;BME280;19656;50.096;20.014;2023-03-01T02:49:24;100236.34;;;0.32;62.02
33286;BME280;19656;50.096;20.014;2023-03-01T02:54:34;100240.36;;;0.31;62.01
33286;BME280;19656;50.096;20.014;2023-03-01T02:59:42;100235.64;;;0.30;62.09
33286;BME280;19656;50.096;20.014;2023-03-01T03:04:46;100235.83;;;0.31;61.89
33286;BME280;19656;50.096;20.014;2023-03-01T03:09:50;100230.06;;;0.26;62.02
33286;BME280;19656;50.096;20.014;2023-03-01T03:14:54;100224.13;;;0.22;62.14
33286;BME280;19656;50.096;20.014;2023-03-01T03:19:57;100221.52;;;0.21;62.18
33286;BME280;19656;50.096;20.014;2023-03-01T03:25:00;100216.45;;;0.19;62.25
33286;BME280;19656;50.096;20.014;2023-03-01T03:30:07;100217.67;;;0.16;62.30
33286;BME280;19656;50.096;20.014;2023-03-01T03:35:15;100218.21;;;0.16;62.13
33286;BME280;19656;50.096;20.014;2023-03-01T03:40:18;100225.00;;;0.14;62.07
33286;BME280;19656;50.096;20.014;2023-03-01T03:45:22;100225.54;;;0.08;62.18
33286;BME280;19656;50.096;20.014;2023-03-01T03:50:25;100227.47;;;0.04;62.35
33286;BME280;19656;50.096;20.014;2023-03-01T03:55:29;100226.75;;;0.05;62.32
33286;BME280;19656;50.096;20.014;2023-03-01T04:00:36;100228.34;;;0.04;62.20
33286;BME280;19656;50.096;20.014;2023-03-01T04:05:40;100224.49;;;-0.00;62.25
33286;BME280;19656;50.096;20.014;2023-03-01T04:10:46;100220.65;;;-0.09;62.23
33286;BME280;19656;50.096;20.014;2023-03-01T04:15:52;100218.20;;;-0.11;62.37
33286;BME280;19656;50.096;20.014;2023-03-01T04:20:56;100231.11;;;-0.10;62.59
33286;BME280;19656;50.096;20.014;2023-03-01T04:25:59;100221.17;;;-0.09;62.57
33286;BME280;19656;50.096;20.014;2023-03-01T04:31:06;100224.66;;;-0.11;62.59
33286;BME280;19656;50.096;20.014;2023-03-01T04:36:17;100220.13;;;-0.10;62.87
33286;BME280;19656;50.096;20.014;2023-03-01T04:41:22;100215.42;;;-0.07;62.95
33286;BME280;19656;50.096;20.014;2023-03-01T04:46:25;100207.58;;;-0.09;62.71
33286;BME280;19656;50.096;20.014;2023-03-01T04:51:29;100201.81;;;-0.12;62.70
33286;BME280;19656;50.096;20.014;2023-03-01T04:56:32;100201.30;;;-0.13;62.70
33286;BME280;19656;50.096;20.014;2023-03-01T05:01:35;100197.10;;;-0.15;62.84
33286;BME280;19656;50.096;20.014;2023-03-01T05:06:40;100207.74;;;-0.12;63.05
33286;BME280;19656;50.096;20.014;2023-03-01T05:11:43;100206.70;;;-0.06;63.34
33286;BME280;19656;50.096;20.014;2023-03-01T05:16:47;100190.48;;;-0.01;62.87
33286;BME280;19656;50.096;20.014;2023-03-01T05:21:50;100188.91;;;-0.03;62.77
33286;BME280;19656;50.096;20.014;2023-03-01T05:27:09;100192.05;;;0.05;62.75
33286;BME280;19656;50.096;20.014;2023-03-01T05:32:12;100197.97;;;0.03;62.68
33286;BME280;19656;50.096;20.014;2023-03-01T05:37:18;100203.55;;;0.03;62.60
33286;BME280;19656;50.096;20.014;2023-03-01T05:42:22;100210.18;;;0.07;63.13
33286;BME280;19656;50.096;20.014;2023-03-01T05:47:25;100208.45;;;0.08;62.85
33286;BME280;19656;50.096;20.014;2023-03-01T05:52:29;100208.26;;;0.03;62.78
33286;BME280;19656;50.096;20.014;2023-03-01T05:57:32;100203.55;;;0.03;62.84
33286;BME280;19656;50.096;20.014;2023-03-01T06:02:35;100204.77;;;0.07;63.06
33286;BME280;19656;50.096;20.014;2023-03-01T06:07:39;100210.89;;;0.13;62.98
33286;BME280;19656;50.096;20.014;2023-03-01T06:12:43;100209.48;;;0.14;63.06
33286;BME280;19656;50.096;20.014;2023-03-01T06:17:47;100212.27;;;0.19;63.57
33286;BME280;19656;50.096;20.014;2023-03-01T06:22:50;100215.55;;;0.35;63.38
33286;BME280;19656;50.096;20.014;2023-03-01T06:27:54;100213.63;;;0.39;63.17
33286;BME280;19656;50.096;20.014;2023-03-01T06:32:58;100215.91;;;0.41;63.33
33286;BME280;19656;50.096;20.014;2023-03-01T06:38:04;100211.52;;;0.45;63.43
33286;BME280;19656;50.096;20.014;2023-03-01T06:43:08;100209.06;;;0.51;63.61
33286;BME280;19656;50.096;20.014;2023-03-01T06:48:11;100203.80;;;0.59;63.61
33286;BME280;19656;50.096;20.014;2023-03-01T06:53:14;100202.91;;;0.70;63.46
33286;BME280;19656;50.096;20.014;2023-03-01T06:58:18;100202.52;;;0.82;63.61
33286;BME280;19656;50.096;20.014;2023-03-01T07:03:21;100197.54;;;1.00;63.75
33286;BME280;19656;50.096;20.014;2023-03-01T07:08:26;100186.61;;;1.19;62.73
33286;BME280;19656;50.096;20.014;2023-03-01T07:13:29;100178.30;;;1.37;62.24
33286;BME280;19656;50.096;20.014;2023-03-01T07:18:33;100174.32;;;1.56;61.47
33286;BME280;19656;50.096;20.014;2023-03-01T07:23:36;100164.92;;;1.74;60.95
33286;BME280;19656;50.096;20.014;2023-03-01T07:28:40;100163.61;;;1.83;60.81
33286;BME280;19656;50.096;20.014;2023-03-01T07:33:43;100158.11;;;1.92;60.96
33286;BME280;19656;50.096;20.014;2023-03-01T07:38:47;100161.20;;;1.99;60.05
33286;BME280;19656;50.096;20.014;2023-03-01T07:43:50;100169.34;;;2.08;59.60
33286;BME280;19656;50.096;20.014;2023-03-01T07:48:53;100170.82;;;2.19;59.07
33286;BME280;19656;50.096;20.014;2023-03-01T07:53:56;100171.55;;;2.33;59.24
33286;BME280;19656;50.096;20.014;2023-03-01T07:58:59;100172.96;;;2.47;58.76
33286;BME280;19656;50.096;20.014;2023-03-01T08:04:03;100168.59;;;2.63;58.68
33286;BME280;19656;50.096;20.014;2023-03-01T08:09:10;100163.11;;;2.81;58.81
33286;BME280;19656;50.096;20.014;2023-03-01T08:14:13;100154.45;;;3.01;58.89
33286;BME280;19656;50.096;20.014;2023-03-01T08:19:17;100151.95;;;3.17;58.89
33286;BME280;19656;50.096;20.014;2023-03-01T08:24:20;100147.02;;;3.31;58.68
33286;BME280;19656;50.096;20.014;2023-03-01T08:29:23;100148.52;;;3.48;58.54
33286;BME280;19656;50.096;20.014;2023-03-01T08:34:30;100139.49;;;3.64;58.19
33286;BME280;19656;50.096;20.014;2023-03-01T08:39:34;100138.06;;;3.77;57.60
33286;BME280;19656;50.096;20.014;2023-03-01T08:44:37;100131.36;;;3.89;57.20
33286;BME280;19656;50.096;20.014;2023-03-01T08:49:41;100128.23;;;4.06;55.03
33286;BME280;19656;50.096;20.014;2023-03-01T08:54:44;100121.55;;;4.08;53.65
33286;BME280;19656;50.096;20.014;2023-03-01T08:59:48;100122.41;;;4.18;54.40
33286;BME280;19656;50.096;20.014;2023-03-01T09:04:51;100127.55;;;4.34;53.77
33286;BME280;19656;50.096;20.014;2023-03-01T09:09:54;100129.73;;;4.49;54.31
33286;BME280;19656;50.096;20.014;2023-03-01T09:15:00;100124.04;;;4.61;54.56
33286;BME280;19656;50.096;20.014;2023-03-01T09:20:08;100113.61;;;4.73;54.37
33286;BME280;19656;50.096;20.014;2023-03-01T09:25:20;100111.34;;;4.88;53.36
33286;BME280;19656;50.096;20.014;2023-03-01T09:30:23;100109.09;;;4.94;51.85
33286;BME280;19656;50.096;20.014;2023-03-01T09:35:27;100109.40;;;5.04;51.54
33286;BME280;19656;50.096;20.014;2023-03-01T09:40:30;100115.21;;;5.27;51.78
33286;BME280;19656;50.096;20.014;2023-03-01T09:45:37;100117.08;;;5.45;51.20
33286;BME280;19656;50.096;20.014;2023-03-01T09:50:43;100117.09;;;5.60;50.87
33286;BME280;19656;50.096;20.014;2023-03-01T09:55:59;100115.88;;;5.73;50.66
33286;BME280;19656;50.096;20.014;2023-03-01T10:06:26;100114.52;;;6.00;49.45
33286;BME280;19656;50.096;20.014;2023-03-01T10:11:39;100113.56;;;6.16;49.21
33286;BME280;19656;50.096;20.014;2023-03-01T10:16:57;100109.03;;;6.34;47.42
33286;BME280;19656;50.096;20.014;2023-03-01T10:22:21;100103.46;;;6.50;46.48
33286;BME280;19656;50.096;20.014;2023-03-01T10:27:29;100094.13;;;6.68;46.36
33286;BME280;19656;50.096;20.014;2023-03-01T10:32:37;100094.71;;;6.84;45.56
33286;BME280;19656;50.096;20.014;2023-03-01T10:37:57;100091.90;;;7.01;44.42
33286;BME280;19656;50.096;20.014;2023-03-01T10:43:03;100087.13;;;7.19;44.73
33286;BME280;19656;50.096;20.014;2023-03-01T10:48:21;100081.98;;;7.47;45.90
33286;BME280;19656;50.096;20.014;2023-03-01T10:53:32;100078.53;;;7.82;45.54
33286;BME280;19656;50.096;20.014;2023-03-01T10:58:37;100072.96;;;8.10;45.53
33286;BME280;19656;50.096;20.014;2023-03-01T11:03:41;100064.49;;;8.40;45.15
33286;BME280;19656;50.096;20.014;2023-03-01T11:08:47;100056.48;;;8.56;44.70
33286;BME280;19656;50.096;20.014;2023-03-01T11:14:00;100045.50;;;8.70;44.90
33286;BME280;19656;50.096;20.014;2023-03-01T11:19:20;100044.66;;;8.78;44.76
33286;BME280;19656;50.096;20.014;2023-03-01T11:24:34;100041.70;;;8.82;44.37
33286;BME280;19656;50.096;20.014;2023-03-01T11:29:41;100039.30;;;8.80;43.56
33286;BME280;19656;50.096;20.014;2023-03-01T11:34:57;100039.26;;;8.67;43.76
33286;BME280;19656;50.096;20.014;2023-03-01T11:45:15;100029.64;;;8.64;43.42
33286;BME280;19656;50.096;20.014;2023-03-01T11:56:11;100015.74;;;8.89;42.39
33286;BME280;19656;50.096;20.014;2023-03-01T12:01:35;100003.45;;;9.14;41.54
33286;BME280;19656;50.096;20.014;2023-03-01T12:07:00;100003.13;;;9.35;40.99
33286;BME280;19656;50.096;20.014;2023-03-01T12:33:45;99983.50;;;10.43;38.09
33286;BME280;19656;50.096;20.014;2023-03-01T12:39:22;99967.96;;;10.45;37.60
33286;BME280;19656;50.096;20.014;2023-03-01T12:44:44;99954.14;;;10.41;37.16
33286;BME280;19656;50.096;20.014;2023-03-01T12:49:55;99948.99;;;10.34;37.19
33286;BME280;19656;50.096;20.014;2023-03-01T12:55:03;99947.58;;;10.30;37.21
33286;BME280;19656;50.096;20.014;2023-03-01T13:05:39;99938.38;;;10.48;36.92
33286;BME280;19656;50.096;20.014;2023-03-01T13:11:15;99941.84;;;10.61;37.67
33286;BME280;19656;50.096;20.014;2023-03-01T13:16:38;99943.16;;;10.79;37.09
33286;BME280;19656;50.096;20.014;2023-03-01T13:21:43;99946.44;;;10.95;37.33
33286;BME280;19656;50.096;20.014;2023-03-01T13:32:26;99934.52;;;11.24;35.98
33286;BME280;19656;50.096;20.014;2023-03-01T13:37:50;99929.77;;;11.37;35.83
33286;BME280;19656;50.096;20.014;2023-03-01T13:42:55;99921.09;;;11.36;35.43
33286;BME280;19656;50.096;20.014;2023-03-01T13:48:23;99912.08;;;11.18;35.19
33286;BME280;19656;50.096;20.014;2023-03-01T13:53:31;99915.29;;;10.82;35.36
33286;BME280;19656;50.096;20.014;2023-03-01T13:58:53;99906.79;;;10.45;35.51
33286;BME280;19656;50.096;20.014;2023-03-01T14:03:59;99904.39;;;10.12;35.71
33286;BME280;19656;50.096;20.014;2023-03-01T14:09:04;99903.88;;;9.88;35.79
33286;BME280;19656;50.096;20.014;2023-03-01T14:19:29;99891.88;;;9.48;35.95
33286;BME280;19656;50.096;20.014;2023-03-01T14:24:38;99890.98;;;9.27;36.81
33286;BME280;19656;50.096;20.014;2023-03-01T14:29:43;99887.52;;;9.13;36.93
33286;BME280;19656;50.096;20.014;2023-03-01T14:34:49;99884.87;;;8.96;36.65
33286;BME280;19656;50.096;20.014;2023-03-01T14:39:54;99887.26;;;8.81;36.64
33286;BME280;19656;50.096;20.014;2023-03-01T14:45:00;99890.04;;;8.70;37.15
33286;BME280;19656;50.096;20.014;2023-03-01T14:50:18;99890.27;;;8.64;37.95
33286;BME280;19656;50.096;20.014;2023-03-01T14:55:42;99887.21;;;8.56;37.40
33286;BME280;19656;50.096;20.014;2023-03-01T15:01:04;99891.90;;;8.49;37.00
33286;BME280;19656;50.096;20.014;2023-03-01T15:06:08;99884.95;;;8.42;37.47
33286;BME280;19656;50.096;20.014;2023-03-01T15:16:32;99885.75;;;8.25;37.86
33286;BME280;19656;50.096;20.014;2023-03-01T15:21:38;99885.17;;;8.17;38.36
33286;BME280;19656;50.096;20.014;2023-03-01T15:26:43;99877.21;;;8.08;38.50
33286;BME280;19656;50.096;20.014;2023-03-01T15:32:04;99883.54;;;8.00;38.39
33286;BME280;19656;50.096;20.014;2023-03-01T15:37:46;99883.20;;;7.95;38.26
33286;BME280;19656;50.096;20.014;2023-03-01T15:43:06;99879.48;;;7.86;38.46
33286;BME280;19656;50.096;20.014;2023-03-01T15:48:20;99875.94;;;7.76;38.51
33286;BME280;19656;50.096;20.014;2023-03-01T15:53:24;99878.80;;;7.66;38.88
33286;BME280;19656;50.096;20.014;2023-03-01T15:58:27;99871.54;;;7.56;38.40
33286;BME280;19656;50.096;20.014;2023-03-01T16:03:31;99876.98;;;7.53;38.65
33286;BME280;19656;50.096;20.014;2023-03-01T16:08:34;99882.70;;;7.41;39.06
33286;BME280;19656;50.096;20.014;2023-03-01T16:13:37;99889.36;;;7.27;39.28
33286;BME280;19656;50.096;20.014;2023-03-01T16:18:45;99891.02;;;7.15;38.97
33286;BME280;19656;50.096;20.014;2023-03-01T16:31:31;99904.23;;;6.84;39.29
33286;BME280;19656;50.096;20.014;2023-03-01T16:36:35;99902.71;;;6.71;39.57
33286;BME280;19656;50.096;20.014;2023-03-01T16:41:39;99910.50;;;6.59;39.83
33286;BME280;19656;50.096;20.014;2023-03-01T16:46:43;99913.16;;;6.47;40.07
33286;BME280;19656;50.096;20.014;2023-03-01T16:51:46;99912.98;;;6.36;40.20
33286;BME280;19656;50.096;20.014;2023-03-01T16:56:50;99909.63;;;6.25;40.87
33286;BME280;19656;50.096;20.014;2023-03-01T17:01:53;99911.83;;;6.17;41.02
33286;BME280;19656;50.096;20.014;2023-03-01T17:06:56;99915.16;;;6.05;41.94
33286;BME280;19656;50.096;20.014;2023-03-01T17:11:59;99913.02;;;5.93;42.13
33286;BME280;19656;50.096;20.014;2023-03-01T17:17:03;99919.96;;;5.84;42.70
33286;BME280;19656;50.096;20.014;2023-03-01T17:22:06;99919.77;;;5.72;43.34
33286;BME280;19656;50.096;20.014;2023-03-01T17:27:11;99922.16;;;5.62;43.42
33286;BME280;19656;50.096;20.014;2023-03-01T17:32:15;99915.52;;;5.54;43.39
33286;BME280;19656;50.096;20.014;2023-03-01T17:37:18;99917.69;;;5.45;43.93
33286;BME280;19656;50.096;20.014;2023-03-01T17:42:23;99919.38;;;5.35;44.53
33286;BME280;19656;50.096;20.014;2023-03-01T17:47:26;99925.13;;;5.24;45.10
33286;BME280;19656;50.096;20.014;2023-03-01T17:52:30;99930.54;;;5.12;45.53
33286;BME280;19656;50.096;20.014;2023-03-01T17:57:33;99932.52;;;5.03;45.81
33286;BME280;19656;50.096;20.014;2023-03-01T18:02:37;99928.04;;;4.92;46.11
33286;BME280;19656;50.096;20.014;2023-03-01T18:07:41;99928.42;;;4.83;46.90
33286;BME280;19656;50.096;20.014;2023-03-01T18:12:44;99920.55;;;4.75;48.27
33286;BME280;19656;50.096;20.014;2023-03-01T18:17:47;99923.41;;;4.65;47.79
33286;BME280;19656;50.096;20.014;2023-03-01T18:22:51;99925.39;;;4.63;48.20
33286;BME280;19656;50.096;20.014;2023-03-01T18:27:54;99922.27;;;4.54;48.20
33286;BME280;19656;50.096;20.014;2023-03-01T18:32:57;99913.75;;;4.43;48.28
33286;BME280;19656;50.096;20.014;2023-03-01T18:38:01;99914.98;;;4.34;48.42
33286;BME280;19656;50.096;20.014;2023-03-01T18:43:04;99913.10;;;4.25;48.84
33286;BME280;19656;50.096;20.014;2023-03-01T18:48:07;99907.36;;;4.14;49.47
33286;BME280;19656;50.096;20.014;2023-03-01T18:53:11;99909.84;;;4.05;50.01
33286;BME280;19656;50.096;20.014;2023-03-01T18:58:14;99905.27;;;3.97;50.37
33286;BME280;19656;50.096;20.014;2023-03-01T19:03:17;99897.69;;;3.90;50.59
33286;BME280;19656;50.096;20.014;2023-03-01T19:08:21;99893.73;;;3.86;50.98
33286;BME280;19656;50.096;20.014;2023-03-01T19:13:25;99894.41;;;3.79;50.85
33286;BME280;19656;50.096;20.014;2023-03-01T19:18:29;99898.55;;;3.74;51.01
33286;BME280;19656;50.096;20.014;2023-03-01T19:23:33;99894.08;;;3.61;51.65
33286;BME280;19656;50.096;20.014;2023-03-01T19:28:37;99893.69;;;3.54;52.16
33286;BME280;19656;50.096;20.014;2023-03-01T19:33:42;99894.40;;;3.44;52.34
33286;BME280;19656;50.096;20.014;2023-03-01T19:38:46;99896.08;;;3.39;53.14
33286;BME280;19656;50.096;20.014;2023-03-01T19:43:50;99905.00;;;3.31;53.37
33286;BME280;19656;50.096;20.014;2023-03-01T19:48:54;99903.77;;;3.32;54.39
33286;BME280;19656;50.096;20.014;2023-03-01T19:53:57;99906.10;;;3.28;54.10
33286;BME280;19656;50.096;20.014;2023-03-01T19:59:01;99906.11;;;3.18;53.92
33286;BME280;19656;50.096;20.014;2023-03-01T20:04:07;99907.84;;;3.10;54.03
33286;BME280;19656;50.096;20.014;2023-03-01T20:09:12;99911.17;;;3.10;55.25
33286;BME280;19656;50.096;20.014;2023-03-01T20:14:23;99915.61;;;3.07;54.39
33286;BME280;19656;50.096;20.014;2023-03-01T20:19:27;99912.91;;;3.01;54.33
33286;BME280;19656;50.096;20.014;2023-03-01T20:24:30;99912.95;;;2.97;54.99
33286;BME280;19656;50.096;20.014;2023-03-01T20:29:34;99918.83;;;3.02;55.40
33286;BME280;19656;50.096;20.014;2023-03-01T20:34:37;99915.70;;;3.01;54.69
33286;BME280;19656;50.096;20.014;2023-03-01T20:39:41;99910.59;;;2.92;54.88
33286;BME280;19656;50.096;20.014;2023-03-01T20:44:44;99912.15;;;2.83;54.98
33286;BME280;19656;50.096;20.014;2023-03-01T20:49:51;99916.48;;;2.75;55.48
33286;BME280;19656;50.096;20.014;2023-03-01T20:54:54;99912.94;;;2.67;55.88
33286;BME280;19656;50.096;20.014;2023-03-01T20:59:58;99910.95;;;2.60;56.03
33286;BME280;19656;50.096;20.014;2023-03-01T21:05:01;99904.51;;;2.57;56.03
33286;BME280;19656;50.096;20.014;2023-03-01T21:10:06;99909.98;;;2.53;56.30
33286;BME280;19656;50.096;20.014;2023-03-01T21:15:09;99906.38;;;2.50;56.63
33286;BME280;19656;50.096;20.014;2023-03-01T21:20:23;99900.98;;;2.48;56.89
33286;BME280;19656;50.096;20.014;2023-03-01T21:25:26;99903.31;;;2.44;57.07
33286;BME280;19656;50.096;20.014;2023-03-01T21:30:36;99906.52;;;2.40;56.95
33286;BME280;19656;50.096;20.014;2023-03-01T21:35:40;99907.95;;;2.38;56.99
33286;BME280;19656;50.096;20.014;2023-03-01T21:40:43;99909.89;;;2.37;57.30
33286;BME280;19656;50.096;20.014;2023-03-01T21:45:47;99908.20;;;2.33;57.31
33286;BME280;19656;50.096;20.014;2023-03-01T21:50:55;99899.70;;;2.27;57.44
33286;BME280;19656;50.096;20.014;2023-03-01T21:56:00;99902.98;;;2.18;57.63
33286;BME280;19656;50.096;20.014;2023-03-01T22:01:08;99898.67;;;2.14;57.86
33286;BME280;19656;50.096;20.014;2023-03-01T22:11:25;99897.02;;;2.07;58.08
33286;BME280;19656;50.096;20.014;2023-03-01T22:16:33;99899.51;;;2.04;58.48
33286;BME280;19656;50.096;20.014;2023-03-01T22:21:42;99899.42;;;1.98;58.32
33286;BME280;19656;50.096;20.014;2023-03-01T22:26:48;99898.04;;;1.96;58.53
33286;BME280;19656;50.096;20.014;2023-03-01T22:31:52;99897.36;;;1.94;58.58
33286;BME280;19656;50.096;20.014;2023-03-01T22:36:56;99892.14;;;1.92;58.43
33286;BME280;19656;50.096;20.014;2023-03-01T22:42:00;99893.02;;;1.92;58.63
33286;BME280;19656;50.096;20.014;2023-03-01T22:47:04;99889.57;;;1.88;58.76
33286;BME280;19656;50.096;20.014;2023-03-01T22:52:07;99888.93;;;1.83;58.85
33286;BME280;19656;50.096;20.014;2023-03-01T22:57:10;99887.88;;;1.84;58.98
33286;BME280;19656;50.096;20.014;2023-03-01T23:02:14;99888.95;;;1.82;58.83
33286;BME280;19656;50.096;20.014;2023-03-01T23:07:17;99889.10;;;1.83;58.89
33286;BME280;19656;50.096;20.014;2023-03-01T23:12:20;99886.15;;;1.82;58.90
33286;BME280;19656;50.096;20.014;2023-03-01T23:17:24;99887.98;;;1.75;58.83
33286;BME280;19656;50.096;20.014;2023-03-01T23:22:29;99887.52;;;1.71;59.20
33286;BME280;19656;50.096;20.014;2023-03-01T23:27:35;99890.73;;;1.65;59.45
33286;BME280;19656;50.096;20.014;2023-03-01T23:32:39;99892.02;;;1.61;59.19
33286;BME280;19656;50.096;20.014;2023-03-01T23:37:42;99896.19;;;1.62;59.44
33286;BME280;19656;50.096;20.014;2023-03-01T23:42:47;99894.77;;;1.62;59.58
33286;BME280;19656;50.096;20.014;2023-03-01T23:47:50;99897.45;;;1.59;59.52
33286;BME280;19656;50.096;20.014;2023-03-01T23:52:54;99900.44;;;1.58;59.51
33286;BME280;19656;50.096;20.014;2023-03-01T23:57:57;99892.92;;;1.57;59.62
